sensor_id;sensor_type;location;lat;lon;timestamp;temperature;humidity
16479;DHT22;8350;52.316;10.530;2024-01-25T00:02:43;8.20;99.90
16479;DHT22;8350;52.316;10.530;2024-01-25T00:07:58;8.30;99.90
16479;DHT22;8350;52.316;10.530;2024-01-25T00:10:51;8.20;99.90
16479;DHT22;8350;52.316;10.530;2024-01-25T00:13:22;8.20;99.90
16479;DHT22;8350;52.316;10.530;2024-01-25T00:15:57;8.20;99.90
16479;DHT22;8350;52.316;10.530;2024-01-25T00:18:35;8.30;99.90
16479;DHT22;8350;52.316;10.530;2024-01-25T00:21:31;8.30;99.90
16479;DHT22;8350;52.316;10.530;2024-01-25T00:24:19;8.20;99.90
16479;DHT22;8350;52.316;10.530;2024-01-25T00:27:02;8.30;99.90
16479;DHT22;8350;52.316;10.530;2024-01-25T00:29:45;8.30;99.90
16479;DHT22;8350;52.316;10.530;2024-01-25T00:32:30;8.30;99.90
16479;DHT22;8350;52.316;10.530;2024-01-25T00:35:23;8.30;99.90
16479;DHT22;8350;52.316;10.530;2024-01-25T00:37:56;8.30;99.90
16479;DHT22;8350;52.316;10.530;2024-01-25T00:40:35;8.30;99.90
16479;DHT22;8350;52.316;10.530;2024-01-25T00:43:08;8.30;99.90
16479;DHT22;8350;52.316;10.530;2024-01-25T00:49:00;8.30;99.90
16479;DHT22;8350;52.316;10.530;2024-01-25T00:51:46;8.30;99.90
16479;DHT22;8350;52.316;10.530;2024-01-25T00:54:20;8.30;99.90
16479;DHT22;8350;52.316;10.530;2024-01-25T00:56:52;8.30;99.90
16479;DHT22;8350;52.316;10.530;2024-01-25T00:59:21;8.30;99.90
16479;DHT22;8350;52.316;10.530;2024-01-25T01:01:53;8.30;99.90
16479;DHT22;8350;52.316;10.530;2024-01-25T01:04:30;8.30;99.90
16479;DHT22;8350;52.316;10.530;2024-01-25T01:07:04;8.20;99.90
16479;DHT22;8350;52.316;10.530;2024-01-25T01:09:31;8.20;99.90
16479;DHT22;8350;52.316;10.530;2024-01-25T01:11:58;8.30;99.90
16479;DHT22;8350;52.316;10.530;2024-01-25T01:14:26;8.20;99.90
16479;DHT22;8350;52.316;10.530;2024-01-25T01:17:24;8.20;99.90
16479;DHT22;8350;52.316;10.530;2024-01-25T01:19:55;8.20;99.90
16479;DHT22;8350;52.316;10.530;2024-01-25T01:22:39;8.20;99.90
16479;DHT22;8350;52.316;10.530;2024-01-25T01:25:15;8.10;99.90
16479;DHT22;8350;52.316;10.530;2024-01-25T01:27:43;8.10;99.90
16479;DHT22;8350;52.316;10.530;2024-01-25T01:30:15;8.10;99.90
16479;DHT22;8350;52.316;10.530;2024-01-25T01:33:10;8.10;99.90
16479;DHT22;8350;52.316;10.530;2024-01-25T01:35:39;8.10;99.90
16479;DHT22;8350;52.316;10.530;2024-01-25T01:38:06;8.10;99.90
16479;DHT22;8350;52.316;10.530;2024-01-25T01:40:34;8.10;99.90
16479;DHT22;8350;52.316;10.530;2024-01-25T01:43:01;8.10;99.90
16479;DHT22;8350;52.316;10.530;2024-01-25T01:45:29;8.10;99.90
16479;DHT22;8350;52.316;10.530;2024-01-25T01:48:02;8.00;99.90
16479;DHT22;8350;52.316;10.530;2024-01-25T01:50:33;8.00;99.90
16479;DHT22;8350;52.316;10.530;2024-01-25T01:53:04;8.00;99.90
16479;DHT22;8350;52.316;10.530;2024-01-25T01:55:31;8.00;99.90
16479;DHT22;8350;52.316;10.530;2024-01-25T01:57:59;8.00;99.90
16479;DHT22;8350;52.316;10.530;2024-01-25T02:00:30;8.00;99.90
16479;DHT22;8350;52.316;10.530;2024-01-25T02:02:59;8.00;99.90
16479;DHT22;8350;52.316;10.530;2024-01-25T02:05:50;8.00;99.90
16479;DHT22;8350;52.316;10.530;2024-01-25T02:08:37;8.00;99.90
16479;DHT22;8350;52.316;10.530;2024-01-25T02:11:06;7.90;99.90
16479;DHT22;8350;52.316;10.530;2024-01-25T02:13:34;7.90;99.90
16479;DHT22;8350;52.316;10.530;2024-01-25T02:16:05;7.90;99.90
16479;DHT22;8350;52.316;10.530;2024-01-25T02:18:52;7.90;99.90
16479;DHT22;8350;52.316;10.530;2024-01-25T02:21:27;7.90;99.90
16479;DHT22;8350;52.316;10.530;2024-01-25T02:24:00;7.90;99.90
16479;DHT22;8350;52.316;10.530;2024-01-25T02:26:30;7.80;99.90
16479;DHT22;8350;52.316;10.530;2024-01-25T02:29:13;7.80;99.90
16479;DHT22;8350;52.316;10.530;2024-01-25T02:31:42;7.80;99.90
16479;DHT22;8350;52.316;10.530;2024-01-25T02:34:10;7.80;99.90
16479;DHT22;8350;52.316;10.530;2024-01-25T02:36:37;7.80;99.90
16479;DHT22;8350;52.316;10.530;2024-01-25T02:39:08;7.80;99.90
16479;DHT22;8350;52.316;10.530;2024-01-25T02:41:37;7.80;99.90
16479;DHT22;8350;52.316;10.530;2024-01-25T02:44:08;7.80;99.90
16479;DHT22;8350;52.316;10.530;2024-01-25T02:46:35;7.70;99.90
16479;DHT22;8350;52.316;10.530;2024-01-25T02:49:02;7.70;99.90
16479;DHT22;8350;52.316;10.530;2024-01-25T02:51:34;7.70;99.90
16479;DHT22;8350;52.316;10.530;2024-01-25T02:54:01;7.70;99.90
16479;DHT22;8350;52.316;10.530;2024-01-25T02:56:31;7.70;99.90
16479;DHT22;8350;52.316;10.530;2024-01-25T02:59:00;7.70;99.90
16479;DHT22;8350;52.316;10.530;2024-01-25T03:01:37;7.70;99.90
16479;DHT22;8350;52.316;10.530;2024-01-25T03:04:12;7.60;99.90
16479;DHT22;8350;52.316;10.530;2024-01-25T03:06:45;7.60;99.90
16479;DHT22;8350;52.316;10.530;2024-01-25T03:09:26;7.60;99.90
16479;DHT22;8350;52.316;10.530;2024-01-25T03:11:58;7.60;99.90
16479;DHT22;8350;52.316;10.530;2024-01-25T03:14:26;7.60;99.90
16479;DHT22;8350;52.316;10.530;2024-01-25T03:17:00;7.60;99.90
16479;DHT22;8350;52.316;10.530;2024-01-25T03:19:28;7.60;99.90
16479;DHT22;8350;52.316;10.530;2024-01-25T03:21:55;7.60;99.90
16479;DHT22;8350;52.316;10.530;2024-01-25T03:24:25;7.50;99.90
16479;DHT22;8350;52.316;10.530;2024-01-25T03:26:56;7.50;99.90
16479;DHT22;8350;52.316;10.530;2024-01-25T03:29:24;7.50;99.90
16479;DHT22;8350;52.316;10.530;2024-01-25T03:31:50;7.50;99.90
16479;DHT22;8350;52.316;10.530;2024-01-25T03:34:18;7.50;99.90
16479;DHT22;8350;52.316;10.530;2024-01-25T03:36:45;7.50;99.90
16479;DHT22;8350;52.316;10.530;2024-01-25T03:39:12;7.50;99.90
16479;DHT22;8350;52.316;10.530;2024-01-25T03:41:44;7.50;99.90
16479;DHT22;8350;52.316;10.530;2024-01-25T03:44:14;7.50;99.90
16479;DHT22;8350;52.316;10.530;2024-01-25T03:46:41;7.50;99.90
16479;DHT22;8350;52.316;10.530;2024-01-25T03:49:07;7.50;99.90
16479;DHT22;8350;52.316;10.530;2024-01-25T03:51:34;7.50;99.90
16479;DHT22;8350;52.316;10.530;2024-01-25T03:54:04;7.50;99.90
16479;DHT22;8350;52.316;10.530;2024-01-25T03:56:32;7.50;99.90
16479;DHT22;8350;52.316;10.530;2024-01-25T03:58:59;7.50;99.90
16479;DHT22;8350;52.316;10.530;2024-01-25T04:01:43;7.50;99.90
16479;DHT22;8350;52.316;10.530;2024-01-25T04:04:13;7.50;99.90
16479;DHT22;8350;52.316;10.530;2024-01-25T04:06:44;7.50;99.90
16479;DHT22;8350;52.316;10.530;2024-01-25T04:09:12;7.50;99.90
16479;DHT22;8350;52.316;10.530;2024-01-25T04:11:40;7.50;99.90
16479;DHT22;8350;52.316;10.530;2024-01-25T04:14:10;7.40;99.90
16479;DHT22;8350;52.316;10.530;2024-01-25T04:16:40;7.40;99.90
16479;DHT22;8350;52.316;10.530;2024-01-25T04:19:07;7.40;99.90
16479;DHT22;8350;52.316;10.530;2024-01-25T04:21:37;7.40;99.90
16479;DHT22;8350;52.316;10.530;2024-01-25T04:24:05;7.40;99.90
16479;DHT22;8350;52.316;10.530;2024-01-25T04:26:33;7.40;99.90
16479;DHT22;8350;52.316;10.530;2024-01-25T04:29:02;7.40;99.90
16479;DHT22;8350;52.316;10.530;2024-01-25T04:31:33;7.30;99.90
16479;DHT22;8350;52.316;10.530;2024-01-25T04:34:02;7.30;99.90
16479;DHT22;8350;52.316;10.530;2024-01-25T04:36:30;7.30;99.90
16479;DHT22;8350;52.316;10.530;2024-01-25T04:38:58;7.30;99.90
16479;DHT22;8350;52.316;10.530;2024-01-25T04:41:26;7.30;99.90
16479;DHT22;8350;52.316;10.530;2024-01-25T04:43:53;7.30;99.90
16479;DHT22;8350;52.316;10.530;2024-01-25T04:46:23;7.30;99.90
16479;DHT22;8350;52.316;10.530;2024-01-25T04:48:50;7.30;99.90
16479;DHT22;8350;52.316;10.530;2024-01-25T04:51:19;7.30;99.90
16479;DHT22;8350;52.316;10.530;2024-01-25T04:53:46;7.30;99.90
16479;DHT22;8350;52.316;10.530;2024-01-25T04:56:14;7.30;99.90
16479;DHT22;8350;52.316;10.530;2024-01-25T04:58:41;7.20;99.90
16479;DHT22;8350;52.316;10.530;2024-01-25T05:01:07;7.20;99.90
16479;DHT22;8350;52.316;10.530;2024-01-25T05:03:34;7.20;99.90
16479;DHT22;8350;52.316;10.530;2024-01-25T05:06:01;7.20;99.90
16479;DHT22;8350;52.316;10.530;2024-01-25T05:08:32;7.20;99.90
16479;DHT22;8350;52.316;10.530;2024-01-25T05:11:00;7.10;99.90
16479;DHT22;8350;52.316;10.530;2024-01-25T05:13:26;7.10;99.90
16479;DHT22;8350;52.316;10.530;2024-01-25T05:15:53;7.10;99.90
16479;DHT22;8350;52.316;10.530;2024-01-25T05:18:20;7.00;99.90
16479;DHT22;8350;52.316;10.530;2024-01-25T05:20:47;7.10;99.90
16479;DHT22;8350;52.316;10.530;2024-01-25T05:23:14;7.10;99.90
16479;DHT22;8350;52.316;10.530;2024-01-25T05:25:45;7.00;99.90
16479;DHT22;8350;52.316;10.530;2024-01-25T05:28:14;7.00;99.90
16479;DHT22;8350;52.316;10.530;2024-01-25T05:30:42;7.00;99.90
16479;DHT22;8350;52.316;10.530;2024-01-25T05:33:09;7.00;99.90
16479;DHT22;8350;52.316;10.530;2024-01-25T05:35:36;7.00;99.90
16479;DHT22;8350;52.316;10.530;2024-01-25T05:38:04;7.00;99.90
16479;DHT22;8350;52.316;10.530;2024-01-25T05:40:33;7.00;99.90
16479;DHT22;8350;52.316;10.530;2024-01-25T05:43:01;7.00;99.90
16479;DHT22;8350;52.316;10.530;2024-01-25T05:45:28;7.00;99.90
16479;DHT22;8350;52.316;10.530;2024-01-25T05:47:55;7.00;99.90
16479;DHT22;8350;52.316;10.530;2024-01-25T05:50:27;7.00;99.90
16479;DHT22;8350;52.316;10.530;2024-01-25T05:52:53;7.00;99.90
16479;DHT22;8350;52.316;10.530;2024-01-25T05:55:20;7.00;99.90
16479;DHT22;8350;52.316;10.530;2024-01-25T05:57:51;7.00;99.90
16479;DHT22;8350;52.316;10.530;2024-01-25T06:00:20;6.90;99.90
16479;DHT22;8350;52.316;10.530;2024-01-25T06:02:47;7.00;99.90
16479;DHT22;8350;52.316;10.530;2024-01-25T06:05:14;7.00;99.90
16479;DHT22;8350;52.316;10.530;2024-01-25T06:07:48;7.00;99.90
16479;DHT22;8350;52.316;10.530;2024-01-25T06:10:28;7.00;99.90
16479;DHT22;8350;52.316;10.530;2024-01-25T06:13:09;6.90;99.90
16479;DHT22;8350;52.316;10.530;2024-01-25T06:15:37;6.90;99.90
16479;DHT22;8350;52.316;10.530;2024-01-25T06:18:10;7.00;99.90
16479;DHT22;8350;52.316;10.530;2024-01-25T06:20:42;6.90;99.90
16479;DHT22;8350;52.316;10.530;2024-01-25T06:23:10;6.90;99.90
16479;DHT22;8350;52.316;10.530;2024-01-25T06:25:39;6.90;99.90
16479;DHT22;8350;52.316;10.530;2024-01-25T06:28:06;6.90;99.90
16479;DHT22;8350;52.316;10.530;2024-01-25T06:30:34;6.90;99.90
16479;DHT22;8350;52.316;10.530;2024-01-25T06:33:05;6.90;99.90
16479;DHT22;8350;52.316;10.530;2024-01-25T06:35:32;6.90;99.90
16479;DHT22;8350;52.316;10.530;2024-01-25T06:37:59;6.90;99.90
16479;DHT22;8350;52.316;10.530;2024-01-25T06:40:26;6.90;99.90
16479;DHT22;8350;52.316;10.530;2024-01-25T06:42:53;6.90;99.90
16479;DHT22;8350;52.316;10.530;2024-01-25T06:45:20;6.90;99.90
16479;DHT22;8350;52.316;10.530;2024-01-25T06:47:47;6.90;99.90
16479;DHT22;8350;52.316;10.530;2024-01-25T06:50:15;6.80;99.90
16479;DHT22;8350;52.316;10.530;2024-01-25T06:52:42;6.80;99.90
16479;DHT22;8350;52.316;10.530;2024-01-25T06:55:09;6.80;99.90
16479;DHT22;8350;52.316;10.530;2024-01-25T06:57:38;6.80;99.90
16479;DHT22;8350;52.316;10.530;2024-01-25T07:00:06;6.80;99.90
16479;DHT22;8350;52.316;10.530;2024-01-25T07:02:33;6.90;99.90
16479;DHT22;8350;52.316;10.530;2024-01-25T07:05:00;6.90;99.90
16479;DHT22;8350;52.316;10.530;2024-01-25T07:07:29;6.90;99.90
16479;DHT22;8350;52.316;10.530;2024-01-25T07:09:57;6.90;99.90
16479;DHT22;8350;52.316;10.530;2024-01-25T07:12:24;6.80;99.90
16479;DHT22;8350;52.316;10.530;2024-01-25T07:14:51;6.90;99.90
16479;DHT22;8350;52.316;10.530;2024-01-25T07:17:18;6.90;99.90
16479;DHT22;8350;52.316;10.530;2024-01-25T07:19:45;6.80;99.90
16479;DHT22;8350;52.316;10.530;2024-01-25T07:22:12;6.80;99.90
16479;DHT22;8350;52.316;10.530;2024-01-25T07:24:44;6.80;99.90
16479;DHT22;8350;52.316;10.530;2024-01-25T07:27:11;6.70;99.90
16479;DHT22;8350;52.316;10.530;2024-01-25T07:29:38;6.80;99.90
16479;DHT22;8350;52.316;10.530;2024-01-25T07:32:06;6.80;99.90
16479;DHT22;8350;52.316;10.530;2024-01-25T07:34:33;6.80;99.90
16479;DHT22;8350;52.316;10.530;2024-01-25T07:36:59;6.80;99.90
16479;DHT22;8350;52.316;10.530;2024-01-25T07:39:26;6.80;99.90
16479;DHT22;8350;52.316;10.530;2024-01-25T07:41:57;6.80;99.90
16479;DHT22;8350;52.316;10.530;2024-01-25T07:44:24;6.80;99.90
16479;DHT22;8350;52.316;10.530;2024-01-25T07:46:51;6.80;99.90
16479;DHT22;8350;52.316;10.530;2024-01-25T07:49:20;6.70;99.90
16479;DHT22;8350;52.316;10.530;2024-01-25T07:51:47;6.70;99.90
16479;DHT22;8350;52.316;10.530;2024-01-25T07:54:14;6.70;99.90
16479;DHT22;8350;52.316;10.530;2024-01-25T07:56:41;6.70;99.90
16479;DHT22;8350;52.316;10.530;2024-01-25T07:59:09;6.70;99.90
16479;DHT22;8350;52.316;10.530;2024-01-25T08:01:36;6.70;99.90
16479;DHT22;8350;52.316;10.530;2024-01-25T08:04:09;6.70;99.90
16479;DHT22;8350;52.316;10.530;2024-01-25T08:06:36;6.70;99.90
16479;DHT22;8350;52.316;10.530;2024-01-25T08:09:06;6.70;99.90
16479;DHT22;8350;52.316;10.530;2024-01-25T08:11:34;6.80;99.90
16479;DHT22;8350;52.316;10.530;2024-01-25T08:14:01;6.80;99.90
16479;DHT22;8350;52.316;10.530;2024-01-25T08:16:33;6.80;99.90
16479;DHT22;8350;52.316;10.530;2024-01-25T08:19:00;6.80;99.90
16479;DHT22;8350;52.316;10.530;2024-01-25T08:21:27;6.80;99.90
16479;DHT22;8350;52.316;10.530;2024-01-25T08:23:54;6.80;99.90
16479;DHT22;8350;52.316;10.530;2024-01-25T08:26:21;6.70;99.90
16479;DHT22;8350;52.316;10.530;2024-01-25T08:28:48;6.80;99.90
16479;DHT22;8350;52.316;10.530;2024-01-25T08:31:15;6.80;99.90
16479;DHT22;8350;52.316;10.530;2024-01-25T08:33:43;6.80;99.90
16479;DHT22;8350;52.316;10.530;2024-01-25T08:36:13;6.80;99.90
16479;DHT22;8350;52.316;10.530;2024-01-25T08:38:39;6.70;99.90
16479;DHT22;8350;52.316;10.530;2024-01-25T08:41:06;6.80;99.90
16479;DHT22;8350;52.316;10.530;2024-01-25T08:43:33;6.80;99.90
16479;DHT22;8350;52.316;10.530;2024-01-25T08:46:00;6.80;99.90
16479;DHT22;8350;52.316;10.530;2024-01-25T08:48:27;6.80;99.90
16479;DHT22;8350;52.316;10.530;2024-01-25T08:50:59;6.70;99.90
16479;DHT22;8350;52.316;10.530;2024-01-25T08:53:30;6.70;99.90
16479;DHT22;8350;52.316;10.530;2024-01-25T08:55:57;6.80;99.90
16479;DHT22;8350;52.316;10.530;2024-01-25T08:58:27;6.70;99.90
16479;DHT22;8350;52.316;10.530;2024-01-25T09:00:53;6.80;99.90
16479;DHT22;8350;52.316;10.530;2024-01-25T09:03:20;6.70;99.90
16479;DHT22;8350;52.316;10.530;2024-01-25T09:05:48;6.70;99.90
16479;DHT22;8350;52.316;10.530;2024-01-25T09:08:17;6.80;99.90
16479;DHT22;8350;52.316;10.530;2024-01-25T09:10:44;6.80;99.90
16479;DHT22;8350;52.316;10.530;2024-01-25T09:13:11;6.80;99.90
16479;DHT22;8350;52.316;10.530;2024-01-25T09:15:37;6.80;99.90
16479;DHT22;8350;52.316;10.530;2024-01-25T09:18:04;6.80;99.90
16479;DHT22;8350;52.316;10.530;2024-01-25T09:20:31;6.80;99.90
16479;DHT22;8350;52.316;10.530;2024-01-25T09:22:57;6.90;99.90
16479;DHT22;8350;52.316;10.530;2024-01-25T09:25:33;6.90;99.90
16479;DHT22;8350;52.316;10.530;2024-01-25T09:28:01;6.90;99.90
16479;DHT22;8350;52.316;10.530;2024-01-25T09:30:35;6.90;99.90
16479;DHT22;8350;52.316;10.530;2024-01-25T09:33:02;6.90;99.90
16479;DHT22;8350;52.316;10.530;2024-01-25T09:35:29;7.00;99.90
16479;DHT22;8350;52.316;10.530;2024-01-25T09:37:56;7.00;99.90
16479;DHT22;8350;52.316;10.530;2024-01-25T09:40:23;7.10;99.90
16479;DHT22;8350;52.316;10.530;2024-01-25T09:42:53;7.10;99.90
16479;DHT22;8350;52.316;10.530;2024-01-25T09:45:21;7.10;99.90
16479;DHT22;8350;52.316;10.530;2024-01-25T09:47:48;7.00;99.90
16479;DHT22;8350;52.316;10.530;2024-01-25T09:50:15;7.10;99.90
16479;DHT22;8350;52.316;10.530;2024-01-25T09:52:43;7.10;99.90
16479;DHT22;8350;52.316;10.530;2024-01-25T09:55:12;7.10;99.90
16479;DHT22;8350;52.316;10.530;2024-01-25T09:57:41;7.10;99.90
16479;DHT22;8350;52.316;10.530;2024-01-25T10:00:16;7.10;99.90
16479;DHT22;8350;52.316;10.530;2024-01-25T10:02:43;7.20;99.90
16479;DHT22;8350;52.316;10.530;2024-01-25T10:05:10;7.20;99.90
16479;DHT22;8350;52.316;10.530;2024-01-25T10:07:38;7.20;99.90
16479;DHT22;8350;52.316;10.530;2024-01-25T10:10:06;7.20;99.90
16479;DHT22;8350;52.316;10.530;2024-01-25T10:12:33;7.20;99.90
16479;DHT22;8350;52.316;10.530;2024-01-25T10:15:03;7.30;99.90
16479;DHT22;8350;52.316;10.530;2024-01-25T10:17:32;7.30;99.90
16479;DHT22;8350;52.316;10.530;2024-01-25T10:19:59;7.30;99.90
16479;DHT22;8350;52.316;10.530;2024-01-25T10:22:26;7.40;99.90
16479;DHT22;8350;52.316;10.530;2024-01-25T10:24:57;7.30;99.90
16479;DHT22;8350;52.316;10.530;2024-01-25T10:27:26;7.40;99.90
16479;DHT22;8350;52.316;10.530;2024-01-25T10:29:53;7.30;99.90
16479;DHT22;8350;52.316;10.530;2024-01-25T10:32:19;7.40;99.90
16479;DHT22;8350;52.316;10.530;2024-01-25T10:34:51;7.40;99.90
16479;DHT22;8350;52.316;10.530;2024-01-25T10:37:19;7.30;99.90
16479;DHT22;8350;52.316;10.530;2024-01-25T10:39:47;7.40;99.90
16479;DHT22;8350;52.316;10.530;2024-01-25T10:42:17;7.30;99.90
16479;DHT22;8350;52.316;10.530;2024-01-25T10:44:44;7.40;99.90
16479;DHT22;8350;52.316;10.530;2024-01-25T10:47:12;7.40;99.90
16479;DHT22;8350;52.316;10.530;2024-01-25T10:49:42;7.40;99.90
16479;DHT22;8350;52.316;10.530;2024-01-25T10:52:10;7.50;99.90
16479;DHT22;8350;52.316;10.530;2024-01-25T10:54:37;7.50;99.90
16479;DHT22;8350;52.316;10.530;2024-01-25T10:57:05;7.50;99.90
16479;DHT22;8350;52.316;10.530;2024-01-25T10:59:32;7.50;99.90
16479;DHT22;8350;52.316;10.530;2024-01-25T11:02:00;7.40;99.90
16479;DHT22;8350;52.316;10.530;2024-01-25T11:04:29;7.40;99.90
16479;DHT22;8350;52.316;10.530;2024-01-25T11:07:06;7.30;99.90
16479;DHT22;8350;52.316;10.530;2024-01-25T11:09:35;7.40;99.90
16479;DHT22;8350;52.316;10.530;2024-01-25T11:12:11;7.40;99.90
16479;DHT22;8350;52.316;10.530;2024-01-25T11:14:39;7.40;99.90
16479;DHT22;8350;52.316;10.530;2024-01-25T11:17:15;7.40;99.90
16479;DHT22;8350;52.316;10.530;2024-01-25T11:19:45;7.50;99.90
16479;DHT22;8350;52.316;10.530;2024-01-25T11:22:11;7.50;99.90
16479;DHT22;8350;52.316;10.530;2024-01-25T11:24:42;7.60;99.90
16479;DHT22;8350;52.316;10.530;2024-01-25T11:27:11;7.70;99.90
16479;DHT22;8350;52.316;10.530;2024-01-25T11:29:38;7.70;99.90
16479;DHT22;8350;52.316;10.530;2024-01-25T11:32:06;7.70;99.90
16479;DHT22;8350;52.316;10.530;2024-01-25T11:34:39;7.70;99.90
16479;DHT22;8350;52.316;10.530;2024-01-25T11:37:06;7.70;99.90
16479;DHT22;8350;52.316;10.530;2024-01-25T11:39:34;7.80;99.90
16479;DHT22;8350;52.316;10.530;2024-01-25T11:42:02;7.70;99.90
16479;DHT22;8350;52.316;10.530;2024-01-25T11:44:29;7.70;99.90
16479;DHT22;8350;52.316;10.530;2024-01-25T11:46:56;7.70;99.90
16479;DHT22;8350;52.316;10.530;2024-01-25T11:49:24;7.60;99.90
16479;DHT22;8350;52.316;10.530;2024-01-25T11:51:51;7.50;99.90
16479;DHT22;8350;52.316;10.530;2024-01-25T11:54:19;7.60;99.90
16479;DHT22;8350;52.316;10.530;2024-01-25T11:56:47;7.60;99.90
16479;DHT22;8350;52.316;10.530;2024-01-25T11:59:15;7.60;99.90
16479;DHT22;8350;52.316;10.530;2024-01-25T12:01:42;7.60;99.90
16479;DHT22;8350;52.316;10.530;2024-01-25T12:04:10;7.70;99.90
16479;DHT22;8350;52.316;10.530;2024-01-25T12:06:37;7.70;99.90
16479;DHT22;8350;52.316;10.530;2024-01-25T12:09:10;7.70;99.90
16479;DHT22;8350;52.316;10.530;2024-01-25T12:11:42;7.80;99.90
16479;DHT22;8350;52.316;10.530;2024-01-25T12:14:16;7.90;99.90
16479;DHT22;8350;52.316;10.530;2024-01-25T12:16:44;7.90;99.90
16479;DHT22;8350;52.316;10.530;2024-01-25T12:19:10;8.00;99.90
16479;DHT22;8350;52.316;10.530;2024-01-25T12:21:43;7.90;99.90
16479;DHT22;8350;52.316;10.530;2024-01-25T12:24:10;7.90;99.90
16479;DHT22;8350;52.316;10.530;2024-01-25T12:26:41;7.90;99.90
16479;DHT22;8350;52.316;10.530;2024-01-25T12:29:10;8.00;99.90
16479;DHT22;8350;52.316;10.530;2024-01-25T12:31:40;8.00;99.90
16479;DHT22;8350;52.316;10.530;2024-01-25T12:34:13;8.00;99.90
16479;DHT22;8350;52.316;10.530;2024-01-25T12:36:42;8.00;99.90
16479;DHT22;8350;52.316;10.530;2024-01-25T12:39:10;8.20;99.90
16479;DHT22;8350;52.316;10.530;2024-01-25T12:41:40;8.30;99.90
16479;DHT22;8350;52.316;10.530;2024-01-25T12:44:09;8.30;99.90
16479;DHT22;8350;52.316;10.530;2024-01-25T12:46:37;8.20;99.90
16479;DHT22;8350;52.316;10.530;2024-01-25T12:49:36;8.20;99.90
16479;DHT22;8350;52.316;10.530;2024-01-25T12:52:04;8.10;99.90
16479;DHT22;8350;52.316;10.530;2024-01-25T12:54:31;8.20;99.90
16479;DHT22;8350;52.316;10.530;2024-01-25T12:56:58;8.20;99.90
16479;DHT22;8350;52.316;10.530;2024-01-25T12:59:25;8.20;99.90
16479;DHT22;8350;52.316;10.530;2024-01-25T13:01:52;8.20;99.90
16479;DHT22;8350;52.316;10.530;2024-01-25T13:04:18;8.20;99.90
16479;DHT22;8350;52.316;10.530;2024-01-25T13:06:51;8.20;99.90
16479;DHT22;8350;52.316;10.530;2024-01-25T13:09:21;8.10;99.90
16479;DHT22;8350;52.316;10.530;2024-01-25T13:12:02;8.10;99.90
16479;DHT22;8350;52.316;10.530;2024-01-25T13:14:29;8.10;99.90
16479;DHT22;8350;52.316;10.530;2024-01-25T13:16:57;8.00;99.90
16479;DHT22;8350;52.316;10.530;2024-01-25T13:19:24;8.00;99.90
16479;DHT22;8350;52.316;10.530;2024-01-25T13:21:54;7.90;99.90
16479;DHT22;8350;52.316;10.530;2024-01-25T13:24:23;7.90;99.90
16479;DHT22;8350;52.316;10.530;2024-01-25T13:26:50;7.90;99.90
16479;DHT22;8350;52.316;10.530;2024-01-25T13:29:23;7.90;99.90
16479;DHT22;8350;52.316;10.530;2024-01-25T13:31:50;7.90;99.90
16479;DHT22;8350;52.316;10.530;2024-01-25T13:34:19;7.90;99.90
16479;DHT22;8350;52.316;10.530;2024-01-25T13:36:48;8.00;99.90
16479;DHT22;8350;52.316;10.530;2024-01-25T13:39:18;8.00;99.90
16479;DHT22;8350;52.316;10.530;2024-01-25T13:41:45;8.00;99.90
16479;DHT22;8350;52.316;10.530;2024-01-25T13:44:13;8.00;99.90
16479;DHT22;8350;52.316;10.530;2024-01-25T13:46:40;8.10;99.90
16479;DHT22;8350;52.316;10.530;2024-01-25T13:49:07;8.10;99.90
16479;DHT22;8350;52.316;10.530;2024-01-25T13:51:34;8.20;99.90
16479;DHT22;8350;52.316;10.530;2024-01-25T13:54:01;8.10;99.90
16479;DHT22;8350;52.316;10.530;2024-01-25T13:56:35;8.20;99.90
16479;DHT22;8350;52.316;10.530;2024-01-25T13:59:03;8.10;99.90
16479;DHT22;8350;52.316;10.530;2024-01-25T14:01:32;7.90;99.90
16479;DHT22;8350;52.316;10.530;2024-01-25T14:04:00;7.90;99.90
16479;DHT22;8350;52.316;10.530;2024-01-25T14:06:27;7.90;99.90
16479;DHT22;8350;52.316;10.530;2024-01-25T14:08:54;7.80;99.90
16479;DHT22;8350;52.316;10.530;2024-01-25T14:11:24;7.80;99.90
16479;DHT22;8350;52.316;10.530;2024-01-25T14:13:53;7.80;99.90
16479;DHT22;8350;52.316;10.530;2024-01-25T14:16:20;7.90;99.90
16479;DHT22;8350;52.316;10.530;2024-01-25T14:18:47;8.00;99.90
16479;DHT22;8350;52.316;10.530;2024-01-25T14:21:14;8.10;99.90
16479;DHT22;8350;52.316;10.530;2024-01-25T14:23:41;8.10;99.90
16479;DHT22;8350;52.316;10.530;2024-01-25T14:26:08;8.10;99.90
16479;DHT22;8350;52.316;10.530;2024-01-25T14:28:35;8.10;99.90
16479;DHT22;8350;52.316;10.530;2024-01-25T14:31:04;8.10;99.90
16479;DHT22;8350;52.316;10.530;2024-01-25T14:33:30;8.10;99.90
16479;DHT22;8350;52.316;10.530;2024-01-25T14:35:57;8.10;99.90
16479;DHT22;8350;52.316;10.530;2024-01-25T14:38:24;8.10;99.90
16479;DHT22;8350;52.316;10.530;2024-01-25T14:40:51;8.10;99.90
16479;DHT22;8350;52.316;10.530;2024-01-25T14:43:18;8.20;99.90
16479;DHT22;8350;52.316;10.530;2024-01-25T14:45:45;8.30;99.90
16479;DHT22;8350;52.316;10.530;2024-01-25T14:48:13;8.30;99.90
16479;DHT22;8350;52.316;10.530;2024-01-25T14:50:40;8.30;99.90
16479;DHT22;8350;52.316;10.530;2024-01-25T14:53:07;8.20;99.90
16479;DHT22;8350;52.316;10.530;2024-01-25T14:55:40;8.20;99.90
16479;DHT22;8350;52.316;10.530;2024-01-25T14:58:07;8.10;99.90
16479;DHT22;8350;52.316;10.530;2024-01-25T15:00:35;8.00;99.90
16479;DHT22;8350;52.316;10.530;2024-01-25T15:03:03;7.90;99.90
16479;DHT22;8350;52.316;10.530;2024-01-25T15:05:31;8.00;99.90
16479;DHT22;8350;52.316;10.530;2024-01-25T15:07:58;8.00;99.90
16479;DHT22;8350;52.316;10.530;2024-01-25T15:10:25;7.90;99.90
16479;DHT22;8350;52.316;10.530;2024-01-25T15:12:52;8.00;99.90
16479;DHT22;8350;52.316;10.530;2024-01-25T15:15:24;8.00;99.90
16479;DHT22;8350;52.316;10.530;2024-01-25T15:17:53;8.00;99.90
16479;DHT22;8350;52.316;10.530;2024-01-25T15:20:21;8.00;99.90
16479;DHT22;8350;52.316;10.530;2024-01-25T15:22:49;7.90;99.90
16479;DHT22;8350;52.316;10.530;2024-01-25T15:25:16;7.90;99.90
16479;DHT22;8350;52.316;10.530;2024-01-25T15:27:45;7.90;99.90
16479;DHT22;8350;52.316;10.530;2024-01-25T15:30:12;7.80;99.90
16479;DHT22;8350;52.316;10.530;2024-01-25T15:32:39;7.80;99.90
16479;DHT22;8350;52.316;10.530;2024-01-25T15:35:08;7.70;99.90
16479;DHT22;8350;52.316;10.530;2024-01-25T15:37:35;7.60;99.90
16479;DHT22;8350;52.316;10.530;2024-01-25T15:40:05;7.60;99.90
16479;DHT22;8350;52.316;10.530;2024-01-25T15:42:36;7.60;99.90
16479;DHT22;8350;52.316;10.530;2024-01-25T15:45:04;7.60;99.90
16479;DHT22;8350;52.316;10.530;2024-01-25T15:47:31;7.60;99.90
16479;DHT22;8350;52.316;10.530;2024-01-25T15:49:58;7.60;99.90
16479;DHT22;8350;52.316;10.530;2024-01-25T15:52:25;7.50;99.90
16479;DHT22;8350;52.316;10.530;2024-01-25T15:54:52;7.40;99.90
16479;DHT22;8350;52.316;10.530;2024-01-25T15:57:23;7.40;99.90
16479;DHT22;8350;52.316;10.530;2024-01-25T15:59:50;7.40;99.90
16479;DHT22;8350;52.316;10.530;2024-01-25T16:02:17;7.30;99.90
16479;DHT22;8350;52.316;10.530;2024-01-25T16:04:46;7.30;99.90
16479;DHT22;8350;52.316;10.530;2024-01-25T16:07:13;7.20;99.90